createdAt,value
2024-01-06T00:00:18.266Z,3.15
2024-01-06T00:02:45.822Z,3.11
2024-01-06T00:05:13.043Z,3.09
2024-01-06T00:07:40.075Z,3.03
2024-01-06T00:10:08.087Z,3.02
2024-01-06T00:12:35.124Z,3.01
2024-01-06T00:15:02.150Z,2.80
2024-01-06T00:17:29.267Z,2.87
2024-01-06T00:19:56.650Z,2.71
2024-01-06T00:22:23.703Z,2.83
2024-01-06T00:24:50.668Z,2.74
2024-01-06T00:27:17.758Z,2.91
2024-01-06T00:29:44.699Z,2.82
2024-01-06T00:32:11.674Z,2.84
2024-01-06T00:34:38.747Z,2.90
2024-01-06T00:37:05.958Z,2.89
2024-01-06T00:39:32.960Z,2.84
2024-01-06T00:42:00.037Z,2.79
2024-01-06T00:44:27.103Z,2.74
2024-01-06T00:46:54.024Z,2.68
2024-01-06T00:49:21.068Z,2.67
2024-01-06T00:51:48.142Z,2.79
2024-01-06T00:54:15.347Z,2.81
2024-01-06T00:56:43.967Z,2.76
2024-01-06T00:59:11.258Z,2.60
2024-01-06T01:01:38.317Z,2.59
2024-01-06T01:04:06.573Z,2.45
2024-01-06T01:06:33.705Z,2.63
2024-01-06T01:09:00.692Z,2.42
2024-01-06T01:11:27.679Z,2.52
2024-01-06T01:13:54.657Z,2.30
2024-01-06T01:16:21.634Z,2.32
2024-01-06T01:18:48.764Z,2.44
2024-01-06T01:21:16.603Z,2.49
2024-01-06T01:23:44.026Z,2.45
2024-01-06T01:26:10.884Z,2.48
2024-01-06T01:28:37.755Z,2.62
2024-01-06T01:31:04.903Z,2.63
2024-01-06T01:33:32.494Z,2.51
2024-01-06T01:36:02.579Z,2.41
2024-01-06T01:38:29.892Z,2.57
2024-01-06T01:40:56.735Z,2.44
2024-01-06T01:43:24.664Z,2.48
2024-01-06T01:45:57.701Z,2.48
2024-01-06T01:48:26.460Z,2.47
2024-01-06T01:50:54.803Z,2.55
2024-01-06T01:53:22.706Z,2.37
2024-01-06T01:55:50.521Z,2.31
2024-01-06T01:58:17.965Z,2.32
2024-01-06T02:00:44.948Z,2.37
2024-01-06T02:03:14.324Z,2.32
2024-01-06T02:05:41.316Z,2.29
2024-01-06T02:08:08.357Z,2.28
2024-01-06T02:10:35.538Z,2.06
2024-01-06T02:13:10.513Z,2.14
2024-01-06T02:15:37.489Z,2.27
2024-01-06T02:18:04.989Z,2.28
2024-01-06T02:20:32.517Z,2.15
2024-01-06T02:23:01.877Z,2.29
2024-01-06T02:25:30.698Z,2.20
2024-01-06T02:27:57.978Z,2.28
2024-01-06T02:30:25.168Z,2.17
2024-01-06T02:32:52.308Z,2.24
2024-01-06T02:35:20.276Z,2.23
2024-01-06T02:37:47.078Z,2.26
2024-01-06T02:40:15.154Z,2.20
2024-01-06T02:42:42.486Z,2.23
2024-01-06T02:45:11.157Z,2.21
2024-01-06T02:47:38.226Z,2.27
2024-01-06T02:50:06.253Z,2.22
2024-01-06T02:52:33.026Z,2.27
2024-01-06T02:55:00.375Z,2.27
2024-01-06T02:57:27.324Z,2.19
2024-01-06T02:59:54.326Z,2.25
2024-01-06T03:02:21.408Z,2.45
2024-01-06T03:04:48.397Z,2.25
2024-01-06T03:07:15.206Z,2.26
2024-01-06T03:09:42.215Z,2.25
2024-01-06T03:12:09.620Z,2.16
2024-01-06T03:14:36.966Z,2.23
2024-01-06T03:17:04.585Z,2.08
2024-01-06T03:19:34.572Z,2.08
2024-01-06T03:22:01.444Z,2.11
2024-01-06T03:24:28.728Z,2.12
2024-01-06T03:26:55.856Z,2.21
2024-01-06T03:29:23.161Z,2.31
2024-01-06T03:31:50.197Z,2.46
2024-01-06T03:34:17.351Z,2.32
2024-01-06T03:36:44.323Z,2.38
2024-01-06T03:39:11.968Z,2.37
2024-01-06T03:41:39.159Z,2.35
2024-01-06T03:44:06.228Z,2.47
2024-01-06T03:46:34.745Z,2.25
2024-01-06T03:49:01.938Z,2.27
2024-01-06T03:51:31.840Z,2.28
2024-01-06T03:53:59.103Z,2.43
2024-01-06T03:56:26.026Z,2.36
2024-01-06T03:58:53.181Z,2.33
2024-01-06T04:01:20.069Z,2.27
2024-01-06T04:03:47.247Z,2.31
2024-01-06T04:06:14.477Z,2.22
2024-01-06T04:08:42.962Z,2.28
2024-01-06T04:11:09.950Z,2.17
2024-01-06T04:13:36.871Z,2.04
2024-01-06T04:16:04.054Z,2.20
2024-01-06T04:18:31.200Z,2.06
2024-01-06T04:20:58.244Z,1.99
2024-01-06T04:23:26.332Z,1.99
2024-01-06T04:25:53.992Z,1.97
2024-01-06T04:28:20.972Z,2.20
2024-01-06T04:30:48.196Z,2.19
2024-01-06T04:33:15.557Z,2.28
2024-01-06T04:35:42.600Z,2.34
2024-01-06T04:38:10.360Z,2.52
2024-01-06T04:40:37.457Z,2.70
2024-01-06T04:43:04.944Z,2.53
2024-01-06T04:45:32.011Z,2.60
2024-01-06T04:50:25.996Z,2.65
2024-01-06T04:52:53.073Z,2.69
2024-01-06T04:55:20.056Z,2.64
2024-01-06T04:57:47.223Z,2.82
2024-01-06T05:00:14.683Z,2.85
2024-01-06T05:02:42.890Z,2.99
2024-01-06T05:05:10.040Z,3.10
2024-01-06T05:07:36.953Z,3.17
2024-01-06T05:10:03.980Z,3.05
2024-01-06T05:12:31.080Z,2.78
2024-01-06T05:14:58.054Z,2.75
2024-01-06T05:17:25.135Z,2.74
2024-01-06T05:19:52.092Z,2.79
2024-01-06T05:22:19.436Z,2.79
2024-01-06T05:24:46.507Z,2.65
2024-01-06T05:27:14.291Z,2.59
2024-01-06T05:29:41.332Z,2.67
2024-01-06T05:32:08.581Z,2.57
2024-01-06T05:34:36.184Z,2.75
2024-01-06T05:37:03.280Z,2.54
2024-01-06T05:39:30.269Z,2.60
2024-01-06T05:41:57.406Z,2.62
2024-01-06T05:44:24.410Z,2.57
2024-01-06T05:46:52.501Z,2.66
2024-01-06T05:49:20.204Z,2.67
2024-01-06T05:51:47.701Z,2.53
2024-01-06T05:54:15.254Z,2.56
2024-01-06T05:56:42.277Z,2.61
2024-01-06T05:59:09.238Z,2.77
2024-01-06T06:01:36.220Z,2.88
2024-01-06T06:04:03.873Z,2.75
2024-01-06T06:06:31.782Z,2.77
2024-01-06T06:08:59.028Z,2.75
2024-01-06T06:11:25.931Z,2.74
2024-01-06T06:13:53.070Z,2.75
2024-01-06T06:16:20.458Z,2.80
2024-01-06T06:18:47.648Z,3.07
2024-01-06T06:21:14.717Z,3.20
2024-01-06T06:23:41.764Z,3.23
2024-01-06T06:26:09.754Z,3.25
2024-01-06T06:28:36.834Z,3.25
2024-01-06T06:31:04.404Z,3.24
2024-01-06T06:33:32.008Z,3.31
2024-01-06T06:35:59.353Z,3.22
2024-01-06T06:38:29.151Z,3.20
2024-01-06T06:40:56.252Z,3.21
2024-01-06T06:43:23.398Z,3.22
2024-01-06T06:45:50.401Z,3.19
2024-01-06T06:48:17.792Z,3.31
2024-01-06T06:50:45.123Z,3.34
2024-01-06T06:53:12.066Z,3.26
2024-01-06T06:55:39.079Z,3.23
2024-01-06T06:58:07.305Z,3.27
2024-01-06T07:00:34.510Z,3.33
2024-01-06T07:03:01.996Z,3.36
2024-01-06T07:05:28.992Z,3.42
2024-01-06T07:07:56.403Z,3.37
2024-01-06T07:10:24.066Z,3.51
2024-01-06T07:12:51.065Z,3.53
2024-01-06T07:15:18.061Z,3.46
2024-01-06T07:17:45.189Z,3.51
2024-01-06T07:20:12.886Z,3.57
2024-01-06T07:22:40.051Z,3.46
2024-01-06T07:25:08.008Z,3.57
2024-01-06T07:27:35.054Z,3.58
2024-01-06T07:30:02.023Z,3.58
2024-01-06T07:32:28.884Z,3.54
2024-01-06T07:34:55.924Z,3.51
2024-01-06T07:37:22.823Z,3.62
2024-01-06T07:39:49.871Z,3.57
2024-01-06T07:42:16.868Z,3.59
2024-01-06T07:44:43.831Z,3.70
2024-01-06T07:47:10.715Z,3.70
2024-01-06T07:49:37.933Z,3.66
2024-01-06T07:52:05.103Z,3.69
2024-01-06T07:54:31.980Z,3.66
2024-01-06T07:56:58.890Z,3.71
2024-01-06T07:59:26.099Z,3.89
2024-01-06T08:01:53.010Z,3.94
2024-01-06T08:04:19.960Z,4.05
2024-01-06T08:06:47.004Z,3.88
2024-01-06T08:09:14.507Z,4.03
2024-01-06T08:11:41.368Z,4.00
2024-01-06T08:14:08.268Z,3.84
2024-01-06T08:16:35.148Z,3.75
2024-01-06T08:19:02.093Z,3.72
2024-01-06T08:21:29.330Z,3.91
2024-01-06T08:23:57.222Z,3.85
2024-01-06T08:26:24.187Z,4.11
2024-01-06T08:28:51.210Z,3.93
2024-01-06T08:31:18.116Z,4.03
2024-01-06T08:33:45.267Z,3.86
2024-01-06T08:36:12.969Z,4.11
2024-01-06T08:38:39.780Z,4.12
2024-01-06T08:41:06.615Z,4.38
2024-01-06T08:43:33.505Z,4.46
2024-01-06T08:46:00.863Z,4.46
2024-01-06T08:48:28.708Z,4.31
2024-01-06T08:50:56.373Z,4.39
2024-01-06T08:53:23.627Z,4.32
2024-01-06T08:55:50.436Z,4.57
2024-01-06T08:58:17.221Z,4.58
2024-01-06T09:00:44.127Z,4.54
2024-01-06T09:03:11.308Z,4.51
2024-01-06T09:05:38.135Z,4.29
2024-01-06T09:08:05.380Z,4.32
2024-01-06T09:10:32.256Z,4.74
2024-01-06T09:12:59.226Z,4.43
2024-01-06T09:15:26.310Z,4.60
2024-01-06T09:17:53.223Z,4.59
2024-01-06T09:20:24.334Z,4.67
2024-01-06T09:22:51.647Z,4.39
2024-01-06T09:25:18.562Z,4.45
2024-01-06T09:27:45.581Z,4.72
2024-01-06T09:30:12.925Z,4.95
2024-01-06T09:32:39.929Z,5.13
2024-01-06T09:35:07.361Z,5.05
2024-01-06T09:37:34.169Z,5.03
2024-01-06T09:40:01.142Z,4.89
2024-01-06T09:42:28.170Z,4.81
2024-01-06T09:44:55.123Z,5.10
2024-01-06T09:47:23.907Z,4.80
2024-01-06T09:49:52.106Z,4.77
2024-01-06T09:52:23.603Z,4.89
2024-01-06T09:54:55.557Z,4.88
2024-01-06T09:57:24.727Z,4.81
2024-01-06T09:59:52.965Z,4.78
2024-01-06T10:02:24.370Z,5.01
2024-01-06T10:04:51.428Z,5.17
2024-01-06T10:07:18.596Z,5.38
2024-01-06T10:09:45.628Z,5.35
2024-01-06T10:12:12.675Z,5.34
2024-01-06T10:14:41.241Z,5.36
2024-01-06T10:17:11.802Z,5.62
2024-01-06T10:19:40.021Z,5.05
2024-01-06T10:22:06.980Z,5.06
2024-01-06T10:24:34.033Z,5.27
2024-01-06T10:27:00.837Z,5.41
2024-01-06T10:29:28.549Z,5.14
2024-01-06T10:31:56.676Z,5.14
2024-01-06T10:34:24.932Z,5.32
2024-01-06T10:36:55.745Z,5.24
2024-01-06T10:39:23.436Z,5.41
2024-01-06T10:41:51.046Z,5.63
2024-01-06T10:44:18.604Z,5.19
2024-01-06T10:46:45.977Z,5.63
2024-01-06T10:49:15.134Z,5.79
2024-01-06T10:51:42.567Z,5.69
2024-01-06T10:54:10.919Z,6.01
2024-01-06T10:56:40.159Z,6.27
2024-01-06T10:59:09.365Z,6.32
2024-01-06T11:01:37.639Z,6.22
2024-01-06T11:04:08.018Z,6.26
2024-01-06T11:06:37.366Z,6.30
2024-01-06T11:09:20.420Z,6.18
2024-01-06T11:11:47.667Z,6.50
2024-01-06T11:14:23.344Z,6.26
2024-01-06T11:16:50.506Z,6.82
2024-01-06T11:19:35.803Z,6.91
2024-01-06T11:22:21.964Z,6.93
2024-01-06T11:24:50.947Z,7.04
2024-01-06T11:27:36.698Z,7.21
2024-01-06T11:30:08.688Z,7.17
2024-01-06T11:32:41.102Z,6.94
2024-01-06T11:35:12.308Z,7.12
2024-01-06T11:37:41.869Z,7.48
2024-01-06T11:40:26.771Z,7.84
2024-01-06T11:43:04.006Z,8.01
2024-01-06T11:45:31.530Z,8.16
2024-01-06T11:48:00.631Z,7.91
2024-01-06T11:50:28.358Z,7.89
2024-01-06T11:52:56.607Z,7.65
2024-01-06T11:55:24.245Z,7.00
2024-01-06T11:57:51.906Z,7.33
2024-01-06T12:00:19.489Z,7.04
2024-01-06T12:02:46.521Z,7.21
2024-01-06T12:05:19.376Z,7.38
2024-01-06T12:08:02.400Z,7.23
2024-01-06T12:10:30.613Z,7.03
2024-01-06T12:13:04.690Z,7.17
2024-01-06T12:15:34.200Z,7.20
2024-01-06T12:18:05.093Z,7.21
2024-01-06T12:20:32.718Z,7.70
2024-01-06T12:23:01.757Z,7.65
2024-01-06T12:25:30.639Z,7.72
2024-01-06T12:27:57.663Z,8.23
2024-01-06T12:30:25.913Z,8.02
2024-01-06T12:32:56.066Z,8.63
2024-01-06T12:35:24.317Z,8.30
2024-01-06T12:37:52.922Z,8.61
2024-01-06T12:40:21.365Z,8.73
2024-01-06T12:42:48.573Z,8.52
2024-01-06T12:45:18.217Z,8.46
2024-01-06T12:47:45.579Z,8.40
2024-01-06T12:50:12.706Z,8.34
2024-01-06T12:52:40.759Z,7.57
2024-01-06T12:55:09.310Z,7.57
2024-01-06T12:57:36.866Z,8.20
2024-01-06T13:00:04.790Z,7.98
2024-01-06T13:02:31.689Z,7.78
2024-01-06T13:04:59.292Z,7.43
2024-01-06T13:07:26.875Z,7.53
2024-01-06T13:09:53.867Z,7.81
2024-01-06T13:12:21.294Z,7.55
2024-01-06T13:14:48.826Z,7.67
2024-01-06T13:17:16.123Z,7.58
2024-01-06T13:19:43.185Z,7.63
2024-01-06T13:22:10.326Z,7.76
2024-01-06T13:24:37.232Z,7.29
2024-01-06T13:27:04.638Z,7.57
2024-01-06T13:29:31.408Z,6.80
2024-01-06T13:31:59.053Z,6.86
2024-01-06T13:34:26.893Z,6.99
2024-01-06T13:36:57.190Z,7.29
2024-01-06T13:39:25.042Z,6.94
2024-01-06T13:41:52.238Z,6.87
2024-01-06T13:44:19.183Z,6.83
2024-01-06T13:46:46.441Z,6.97
2024-01-06T13:49:13.805Z,7.43
2024-01-06T13:51:41.787Z,7.39
2024-01-06T13:54:09.533Z,7.34
2024-01-06T13:56:36.751Z,7.21
2024-01-06T13:59:04.131Z,7.23
2024-01-06T14:01:31.987Z,7.05
2024-01-06T14:03:59.420Z,7.06
2024-01-06T14:06:32.370Z,7.16
2024-01-06T14:09:00.016Z,6.87
2024-01-06T14:11:32.205Z,6.98
2024-01-06T14:13:59.601Z,6.76
2024-01-06T14:16:29.323Z,6.77
2024-01-06T14:18:56.877Z,6.80
2024-01-06T14:21:24.159Z,6.72
2024-01-06T14:23:50.986Z,6.92
2024-01-06T14:26:25.205Z,6.78
2024-01-06T14:28:52.155Z,7.01
2024-01-06T14:31:19.822Z,6.84
2024-01-06T14:33:47.055Z,6.80
2024-01-06T14:36:14.450Z,6.72
2024-01-06T14:38:41.894Z,6.81
2024-01-06T14:41:08.686Z,6.84
2024-01-06T14:43:35.467Z,6.82
2024-01-06T14:46:02.543Z,6.78
2024-01-06T14:48:29.687Z,6.61
2024-01-06T14:50:56.696Z,6.78
2024-01-06T14:53:23.673Z,6.71
2024-01-06T14:55:50.508Z,6.69
2024-01-06T14:58:17.374Z,6.81
2024-01-06T15:00:44.185Z,6.53
2024-01-06T15:03:11.000Z,6.46
2024-01-06T15:05:37.857Z,6.32
2024-01-06T15:08:04.973Z,6.61
2024-01-06T15:10:31.768Z,6.82
2024-01-06T15:12:58.738Z,6.66
2024-01-06T15:15:25.558Z,6.33
2024-01-06T15:17:52.538Z,6.31
2024-01-06T15:20:19.496Z,6.41
2024-01-06T15:22:46.308Z,6.27
2024-01-06T15:25:13.210Z,6.14
2024-01-06T15:27:40.205Z,6.05
2024-01-06T15:30:10.961Z,6.09
2024-01-06T15:32:39.018Z,6.04
2024-01-06T15:35:07.088Z,6.09
2024-01-06T15:37:33.995Z,5.97
2024-01-06T15:40:00.962Z,5.94
2024-01-06T15:42:28.137Z,5.97
2024-01-06T15:44:54.955Z,6.08
2024-01-06T15:47:22.093Z,6.08
2024-01-06T15:49:49.084Z,6.08
2024-01-06T15:52:16.067Z,6.11
2024-01-06T15:54:42.983Z,5.97
2024-01-06T15:57:11.160Z,6.02
2024-01-06T15:59:37.985Z,6.11
2024-01-06T16:02:04.941Z,5.83
2024-01-06T16:04:32.379Z,5.87
2024-01-06T16:06:59.402Z,5.89
2024-01-06T16:09:27.254Z,5.81
2024-01-06T16:11:57.058Z,5.78
2024-01-06T16:14:26.581Z,5.67
2024-01-06T16:16:54.188Z,5.76
2024-01-06T16:19:21.701Z,5.83
2024-01-06T16:21:49.643Z,5.70
2024-01-06T16:24:19.762Z,5.96
2024-01-06T16:26:46.894Z,5.93
2024-01-06T16:29:13.786Z,5.93
2024-01-06T16:31:40.619Z,5.85
2024-01-06T16:34:07.553Z,5.76
2024-01-06T16:36:35.374Z,5.69
2024-01-06T16:39:02.587Z,5.62
2024-01-06T16:41:30.792Z,5.55
2024-01-06T16:43:57.653Z,5.40
2024-01-06T16:46:24.508Z,5.35
2024-01-06T16:48:51.461Z,5.24
2024-01-06T16:51:18.418Z,5.21
2024-01-06T16:53:45.438Z,5.07
2024-01-06T16:56:12.326Z,5.10
2024-01-06T16:58:39.983Z,5.04
2024-01-06T17:01:07.380Z,4.97
2024-01-06T17:03:34.327Z,4.96
2024-01-06T17:06:01.150Z,4.96
2024-01-06T17:08:28.083Z,4.99
2024-01-06T17:10:54.863Z,4.99
2024-01-06T17:13:23.199Z,4.86
2024-01-06T17:15:50.091Z,4.82
2024-01-06T17:18:17.349Z,4.79
2024-01-06T17:20:44.465Z,4.82
2024-01-06T17:23:11.322Z,5.04
2024-01-06T17:25:38.864Z,4.98
2024-01-06T17:28:06.310Z,5.07
2024-01-06T17:30:33.432Z,5.06
2024-01-06T17:33:00.629Z,4.95
2024-01-06T17:35:27.834Z,4.87
2024-01-06T17:37:54.778Z,4.77
2024-01-06T17:40:21.693Z,4.88
2024-01-06T17:42:49.035Z,4.82
2024-01-06T17:45:16.176Z,4.89
2024-01-06T17:47:44.573Z,4.94
2024-01-06T17:50:11.849Z,4.98
2024-01-06T17:52:38.862Z,4.90
2024-01-06T17:55:07.876Z,4.89
2024-01-06T17:57:36.274Z,4.99
2024-01-06T18:00:04.801Z,4.81
2024-01-06T18:02:31.632Z,4.80
2024-01-06T18:04:59.361Z,4.86
2024-01-06T18:07:26.805Z,4.81
2024-01-06T18:09:53.802Z,4.77
2024-01-06T18:12:20.746Z,4.83
2024-01-06T18:14:47.544Z,4.86
2024-01-06T18:17:14.419Z,4.87
2024-01-06T18:19:41.267Z,4.77
2024-01-06T18:22:08.647Z,4.78
2024-01-06T18:24:37.637Z,4.73
2024-01-06T18:27:05.755Z,4.55
2024-01-06T18:29:35.243Z,4.41
2024-01-06T18:32:02.381Z,4.56
2024-01-06T18:34:29.318Z,4.71
2024-01-06T18:36:56.358Z,4.84
2024-01-06T18:39:23.220Z,4.78
2024-01-06T18:41:50.189Z,4.79
2024-01-06T18:44:17.218Z,4.75
2024-01-06T18:46:44.074Z,4.74
2024-01-06T18:49:11.006Z,4.80
2024-01-06T18:51:38.686Z,4.89
2024-01-06T18:54:12.556Z,4.81
2024-01-06T18:56:43.211Z,4.81
2024-01-06T18:59:10.122Z,4.82
2024-01-06T19:01:37.324Z,4.92
2024-01-06T19:04:04.360Z,4.92
2024-01-06T19:06:31.954Z,4.82
2024-01-06T19:08:58.833Z,4.78
2024-01-06T19:11:25.712Z,4.90
2024-01-06T19:13:52.572Z,4.86
2024-01-06T19:16:19.776Z,4.83
2024-01-06T19:18:46.914Z,5.01
2024-01-06T19:21:15.179Z,5.04
2024-01-06T19:23:42.215Z,4.95
2024-01-06T19:26:09.139Z,4.83
2024-01-06T19:28:36.425Z,4.99
2024-01-06T19:31:03.566Z,5.17
2024-01-06T19:33:30.721Z,5.02
2024-01-06T19:35:57.820Z,4.99
2024-01-06T19:38:25.121Z,5.12
2024-01-06T19:40:52.061Z,4.97
2024-01-06T19:43:19.542Z,4.89
2024-01-06T19:45:46.455Z,4.76
2024-01-06T19:48:13.442Z,4.73
2024-01-06T19:50:40.354Z,4.71
2024-01-06T19:53:07.168Z,4.63
2024-01-06T19:55:34.140Z,4.69
2024-01-06T19:58:01.059Z,4.70
2024-01-06T20:00:30.576Z,4.79
2024-01-06T20:02:59.000Z,4.79
2024-01-06T20:05:28.566Z,4.77
2024-01-06T20:07:55.451Z,4.73
2024-01-06T20:10:22.373Z,4.83
2024-01-06T20:12:49.310Z,4.92
2024-01-06T20:15:16.291Z,4.75
2024-01-06T20:17:43.213Z,4.82
2024-01-06T20:20:16.127Z,4.89
2024-01-06T20:22:43.085Z,4.89
2024-01-06T20:25:10.197Z,4.90
2024-01-06T20:27:37.212Z,4.83
2024-01-06T20:30:04.764Z,4.92
2024-01-06T20:32:32.577Z,4.78
2024-01-06T20:35:01.112Z,4.74
2024-01-06T20:37:28.195Z,4.82
2024-01-06T20:39:58.248Z,4.83
2024-01-06T20:42:25.317Z,4.92
2024-01-06T20:44:52.314Z,4.79
2024-01-06T20:47:19.123Z,4.73
2024-01-06T20:49:46.015Z,4.75
2024-01-06T20:52:13.061Z,4.72
2024-01-06T20:54:40.219Z,4.69
2024-01-06T20:57:08.899Z,4.71
2024-01-06T20:59:35.864Z,4.73
2024-01-06T21:02:03.467Z,4.71
2024-01-06T21:04:30.329Z,4.64
2024-01-06T21:06:57.187Z,4.76
2024-01-06T21:09:27.336Z,4.61
2024-01-06T21:11:55.777Z,4.60
2024-01-06T21:14:23.092Z,4.75
2024-01-06T21:16:51.986Z,4.69
2024-01-06T21:19:20.002Z,4.67
2024-01-06T21:21:47.178Z,4.66
2024-01-06T21:24:14.282Z,4.60
2024-01-06T21:26:41.115Z,4.47
2024-01-06T21:29:08.034Z,4.66
2024-01-06T21:31:35.097Z,4.49
2024-01-06T21:34:02.110Z,4.51
2024-01-06T21:36:29.971Z,4.69
2024-01-06T21:38:57.629Z,4.66
2024-01-06T21:41:25.331Z,4.57
2024-01-06T21:43:52.841Z,4.60
2024-01-06T21:46:20.434Z,4.65
2024-01-06T21:48:48.230Z,4.70
2024-01-06T21:51:17.426Z,4.56
2024-01-06T21:53:44.525Z,4.47
2024-01-06T21:56:11.473Z,4.53
2024-01-06T21:58:38.362Z,4.70
2024-01-06T22:01:05.353Z,4.75
2024-01-06T22:03:32.481Z,4.62
2024-01-06T22:05:59.433Z,4.75
2024-01-06T22:08:26.454Z,4.79
2024-01-06T22:10:53.316Z,4.68
2024-01-06T22:13:20.282Z,4.64
2024-01-06T22:15:47.550Z,4.60
2024-01-06T22:18:14.715Z,4.69
2024-01-06T22:20:41.909Z,4.67
2024-01-06T22:23:08.907Z,4.71
2024-01-06T22:25:35.881Z,4.61
2024-01-06T22:28:03.409Z,4.67
2024-01-06T22:30:30.647Z,4.58
2024-01-06T22:32:57.599Z,4.62
2024-01-06T22:35:24.471Z,4.74
2024-01-06T22:37:51.298Z,4.73
2024-01-06T22:40:21.629Z,4.63
2024-01-06T22:42:49.025Z,4.63
2024-01-06T22:45:16.021Z,4.55
2024-01-06T22:47:43.074Z,4.72
2024-01-06T22:50:10.112Z,4.61
2024-01-06T22:52:36.970Z,4.63
2024-01-06T22:55:04.427Z,4.61
2024-01-06T22:57:31.393Z,4.73
2024-01-06T22:59:58.534Z,4.80
2024-01-06T23:02:25.558Z,4.63
2024-01-06T23:04:54.786Z,4.77
2024-01-06T23:07:21.665Z,4.58
2024-01-06T23:09:48.704Z,4.62
2024-01-06T23:12:15.721Z,4.67
2024-01-06T23:14:42.661Z,4.78
2024-01-06T23:17:10.076Z,4.69
2024-01-06T23:19:37.109Z,4.61
2024-01-06T23:22:04.732Z,4.60
2024-01-06T23:24:34.062Z,4.59
2024-01-06T23:27:01.012Z,4.65
2024-01-06T23:29:27.857Z,4.61
2024-01-06T23:31:54.805Z,4.64
2024-01-06T23:34:30.052Z,4.54
2024-01-06T23:37:01.882Z,4.63
2024-01-06T23:39:28.803Z,4.56
2024-01-06T23:41:55.698Z,4.55
2024-01-06T23:44:22.630Z,4.60
2024-01-06T23:46:51.742Z,4.46
2024-01-06T23:49:18.840Z,4.46
2024-01-06T23:51:45.773Z,4.48
2024-01-06T23:54:12.692Z,4.46
2024-01-06T23:56:39.523Z,4.45
2024-01-06T23:59:06.373Z,4.50
